Time;durP1;ratioP1;P1;durP2;ratioP2;P2;SDS_P1;SDS_P2;PMS_P1;PMS_P2;Temp;Humidity;BMP_temperature;BMP_pressure;BME280_temperature;BME280_humidity;BME280_pressure;Samples;Min_cycle;Max_cycle;Signal;HPM_P1;HPM_P2
2021/09/30 00:01:49;;;;;;;2.90;1.10;;;;;;;11.31;100.00;101089.53;4975420;28;20759;-72
2021/09/30 00:04:17;;;;;;;1.40;1.00;;;;;;;11.39;100.00;101085.47;4980628;28;20778;-74
2021/09/30 00:06:45;;;;;;;2.40;1.20;;;;;;;11.25;100.00;101074.28;5010684;28;20307;-72
2021/09/30 00:09:16;;;;;;;2.80;1.40;;;;;;;11.24;100.00;101080.78;5011012;28;20225;-73
2021/09/30 00:11:44;;;;;;;3.00;1.10;;;;;;;11.27;100.00;101093.84;4995015;28;20665;-73
2021/09/30 00:14:37;;;;;;;4.07;1.20;;;;;;;11.40;100.00;101087.94;4994845;28;20177;-72
2021/09/30 00:17:25;;;;;;;3.50;1.20;;;;;;;11.33;100.00;101092.78;4998250;28;20648;-72
2021/09/30 00:36:17;;;;;;;3.53;1.50;;;;;;;11.47;100.00;101126.63;4971177;28;20691;-76
2021/09/30 00:49:52;;;;;;;4.77;1.70;;;;;;;11.46;100.00;101135.84;4964658;28;20198;-73
2021/09/30 01:19:08;;;;;;;4.50;1.23;;;;;;;11.35;100.00;101155.88;4976986;28;20206;-72
2021/09/30 01:32:16;;;;;;;4.83;1.17;;;;;;;11.50;100.00;101172.34;4968043;28;20194;-74
2021/09/30 01:46:51;;;;;;;4.73;0.93;;;;;;;11.52;100.00;101166.59;4999666;28;20213;-75
2021/09/30 01:58:26;;;;;;;4.77;1.27;;;;;;;11.59;100.00;101178.88;4967227;28;20244;-72
2021/09/30 02:31:30;;;;;;;2.87;1.20;;;;;;;11.36;100.00;101206.50;4979622;28;20299;-75
2021/09/30 02:58:56;;;;;;;3.33;0.80;;;;;;;11.39;100.00;101230.47;4980039;28;20205;-74
2021/09/30 03:01:26;;;;;;;1.77;0.80;;;;;;;11.24;100.00;101235.78;4985995;28;20237;-71
2021/09/30 03:03:57;;;;;;;5.73;1.07;;;;;;;11.26;100.00;101233.66;4993587;28;20813;-72
2021/09/30 03:06:24;;;;;;;2.33;0.90;;;;;;;11.29;100.00;101235.81;4967772;28;20210;-72
2021/09/30 03:08:54;;;;;;;5.20;1.10;;;;;;;11.13;100.00;101237.88;4992587;28;20321;-71
2021/09/30 03:11:20;;;;;;;3.43;1.00;;;;;;;11.29;100.00;101243.97;4985861;28;20233;-73
2021/09/30 03:13:51;;;;;;;3.00;1.00;;;;;;;11.11;100.00;101246.31;4976864;28;20213;-75
2021/09/30 03:19:04;;;;;;;3.40;1.00;;;;;;;11.21;100.00;101254.56;4957779;28;20206;-74
2021/09/30 03:24:17;;;;;;;2.17;0.83;;;;;;;11.03;100.00;101275.88;4959937;28;20569;-72
2021/09/30 03:26:45;;;;;;;3.53;1.10;;;;;;;11.09;100.00;101269.41;4959748;28;20296;-74
2021/09/30 03:29:11;;;;;;;5.57;1.30;;;;;;;11.19;100.00;101276.56;4955037;28;20217;-74
2021/09/30 03:31:41;;;;;;;2.67;0.87;;;;;;;11.04;100.00;101272.06;4941046;28;20714;-74
2021/09/30 03:34:31;;;;;;;4.60;1.30;;;;;;;11.05;100.00;101273.72;4973087;28;20650;-74
2021/09/30 03:37:01;;;;;;;7.10;1.10;;;;;;;10.96;100.00;101286.16;4956261;28;20217;-75
2021/09/30 03:39:30;;;;;;;4.63;0.83;;;;;;;10.89;100.00;101286.34;4941658;28;20199;-77
2021/09/30 03:41:59;;;;;;;2.87;1.03;;;;;;;11.04;100.00;101293.81;4953509;28;20234;-74
2021/09/30 03:44:34;;;;;;;4.07;1.13;;;;;;;10.91;100.00;101299.69;4960131;28;20815;-75
2021/09/30 03:47:04;;;;;;;2.73;1.00;;;;;;;10.82;100.00;101302.09;4972954;28;20221;-73
2021/09/30 03:49:54;;;;;;;3.17;1.03;;;;;;;10.88;100.00;101284.72;4985810;28;20811;-74
2021/09/30 03:59:07;;;;;;;4.20;1.20;;;;;;;10.94;100.00;101304.63;4990551;28;20576;-73
2021/09/30 04:00:38;;;;;;;5.50;1.33;;;;;;;10.90;100.00;101308.94;4969049;28;20600;-73
2021/09/30 04:03:04;;;;;;;4.03;1.30;;;;;;;10.84;100.00;101316.22;4994788;28;20260;-73
2021/09/30 04:05:38;;;;;;;4.63;1.20;;;;;;;10.74;100.00;101310.69;4978855;28;20776;-76
2021/09/30 04:08:06;;;;;;;4.63;1.13;;;;;;;10.76;100.00;101313.16;4995115;28;20185;-72
2021/09/30 04:10:34;;;;;;;3.37;1.13;;;;;;;10.81;100.00;101321.34;4978099;28;20217;-73
2021/09/30 04:13:02;;;;;;;3.57;0.90;;;;;;;10.76;100.00;101319.38;4978921;28;20382;-75
2021/09/30 04:15:31;;;;;;;5.47;2.10;;;;;;;10.80;100.00;101315.09;4978754;28;20217;-74
2021/09/30 04:18:01;;;;;;;4.70;1.00;;;;;;;10.78;100.00;101321.84;4978386;28;20659;-73
2021/09/30 04:20:27;;;;;;;4.57;1.13;;;;;;;10.74;100.00;101319.91;4978442;28;20752;-75
2021/09/30 04:23:03;;;;;;;3.60;1.07;;;;;;;10.66;100.00;101329.34;4981511;28;20794;-74
2021/09/30 04:25:32;;;;;;;3.03;1.30;;;;;;;10.83;100.00;101328.16;4979515;28;20690;-74
2021/09/30 04:27:58;;;;;;;3.97;1.00;;;;;;;10.73;100.00;101337.28;4962655;28;20181;-75
2021/09/30 04:30:26;;;;;;;2.73;1.03;;;;;;;10.76;100.00;101335.69;4977810;28;20254;-73
2021/09/30 04:33:15;;;;;;;5.33;1.10;;;;;;;10.75;100.00;101327.81;4998554;28;20177;-76
2021/09/30 04:35:40;;;;;;;3.27;1.37;;;;;;;10.64;100.00;101334.22;4993753;28;20706;-73
2021/09/30 04:38:07;;;;;;;1.27;0.87;;;;;;;10.66;100.00;101345.66;4993965;28;20212;-73
2021/09/30 04:40:38;;;;;;;5.00;1.27;;;;;;;10.54;100.00;101336.81;4974438;28;20707;-74
2021/09/30 04:43:04;;;;;;;3.83;1.10;;;;;;;10.67;100.00;101336.41;4944184;28;20187;-75
2021/09/30 04:45:30;;;;;;;3.17;1.10;;;;;;;10.47;100.00;101348.97;4955211;28;20226;-75
2021/09/30 04:48:05;;;;;;;6.37;1.20;;;;;;;10.41;100.00;101337.22;4988818;28;20181;-74
2021/09/30 04:50:35;;;;;;;3.73;1.20;;;;;;;10.57;100.00;101341.75;4954603;28;20228;-74
2021/09/30 04:53:02;;;;;;;2.40;0.90;;;;;;;10.58;100.00;101348.00;4955377;28;20530;-74
2021/09/30 04:55:32;;;;;;;4.43;1.20;;;;;;;10.50;100.00;101343.84;4968879;28;20710;-76
2021/09/30 04:57:57;;;;;;;3.17;1.10;;;;;;;10.55;100.00;101343.91;4955079;28;20186;-75
2021/09/30 05:00:25;;;;;;;1.63;0.80;;;;;;;10.47;100.00;101336.19;4949413;28;20280;-73
2021/09/30 05:03:04;;;;;;;4.53;1.40;;;;;;;10.51;100.00;101342.78;4962899;28;20186;-70
2021/09/30 05:05:33;;;;;;;3.47;1.10;;;;;;;10.46;100.00;101355.47;4959093;28;20229;-74
2021/09/30 05:08:00;;;;;;;2.23;1.20;;;;;;;10.39;100.00;101355.66;4959491;28;20751;-75
2021/09/30 05:10:33;;;;;;;2.60;0.87;;;;;;;10.47;100.00;101362.53;5000672;28;20236;-75
2021/09/30 05:13:08;;;;;;;4.57;1.20;;;;;;;10.34;100.00;101362.13;4979462;28;20182;-75
2021/09/30 05:15:37;;;;;;;3.87;1.20;;;;;;;10.45;100.00;101354.63;4975654;28;20225;-74
2021/09/30 05:18:13;;;;;;;3.33;1.50;;;;;;;10.35;100.00;101364.59;4980341;28;20621;-73
2021/09/30 05:20:46;;;;;;;2.33;0.87;;;;;;;10.40;100.00;101360.03;4992724;28;20648;-76
2021/09/30 05:23:14;;;;;;;2.80;1.03;;;;;;;10.41;100.00;101369.81;4978974;28;20217;-73
2021/09/30 05:25:42;;;;;;;2.80;1.10;;;;;;;10.47;100.00;101374.22;4946156;28;20293;-72
2021/09/30 05:28:08;;;;;;;2.57;0.93;;;;;;;10.54;100.00;101368.59;4978215;28;20217;-73
2021/09/30 05:30:33;;;;;;;3.00;1.07;;;;;;;10.47;100.00;101362.53;4977306;28;20229;-73
2021/09/30 05:33:07;;;;;;;2.47;0.70;;;;;;;10.32;100.00;101369.69;4958808;28;20190;-72
2021/09/30 05:35:35;;;;;;;4.27;1.10;;;;;;;10.57;100.00;101374.34;4977252;28;20221;-73
2021/09/30 05:38:01;;;;;;;3.10;1.10;;;;;;;10.65;100.00;101378.50;4977749;28;20263;-72
2021/09/30 05:40:30;;;;;;;3.70;1.27;;;;;;;10.81;100.00;101381.94;4958080;28;20330;-74
2021/09/30 05:43:03;;;;;;;4.57;1.00;;;;;;;10.70;100.00;101392.97;4958314;28;20670;-72
2021/09/30 05:45:31;;;;;;;2.00;1.10;;;;;;;10.47;100.00;101387.78;4964534;28;20230;-72
2021/09/30 05:48:05;;;;;;;2.47;0.90;;;;;;;10.54;100.00;101385.72;4975407;28;20298;-74
2021/09/30 05:50:32;;;;;;;5.13;1.17;;;;;;;10.49;100.00;101388.41;4958683;28;20316;-75
2021/09/30 05:53:25;;;;;;;4.13;1.00;;;;;;;10.57;100.00;101393.38;4976363;28;20186;-72
2021/09/30 05:56:17;;;;;;;4.87;1.10;;;;;;;10.47;100.00;101387.78;4970168;28;20226;-75
2021/09/30 05:58:46;;;;;;;3.30;1.00;;;;;;;10.76;100.00;101397.38;4975030;28;20297;-72
2021/09/30 06:01:44;;;;;;;3.47;1.37;;;;;;;10.69;100.00;101404.91;4986483;28;20233;-77
2021/09/30 06:14:58;;;;;;;4.20;1.10;;;;;;;10.68;100.00;101403.28;4998035;28;20268;-74
2021/09/30 06:17:24;;;;;;;3.07;1.13;;;;;;;10.78;100.00;101414.25;4996826;28;20220;-73
2021/09/30 06:19:56;;;;;;;3.70;1.30;;;;;;;10.75;100.00;101415.59;5013627;28;20217;-73
2021/09/30 06:22:26;;;;;;;5.97;1.37;;;;;;;10.77;100.00;101412.63;4982357;28;20224;-72
2021/09/30 06:24:54;;;;;;;2.20;1.10;;;;;;;10.74;100.00;101407.69;4965438;28;20620;-73
2021/09/30 06:27:21;;;;;;;4.37;1.20;;;;;;;10.77;100.00;101413.44;4976330;28;20221;-72
2021/09/30 06:29:48;;;;;;;4.33;1.43;;;;;;;10.87;100.00;101418.16;4977991;28;20293;-72
2021/09/30 06:32:15;;;;;;;4.27;1.30;;;;;;;10.86;100.00;101420.06;4979270;28;20251;-71
2021/09/30 06:35:05;;;;;;;3.63;1.20;;;;;;;10.91;100.00;101425.53;5000227;28;20193;-73
2021/09/30 06:37:41;;;;;;;1.93;1.10;;;;;;;11.00;100.00;101431.34;4984913;28;20173;-74
2021/09/30 06:40:07;;;;;;;2.70;1.20;;;;;;;11.13;100.00;101439.09;4996592;28;20720;-72
2021/09/30 06:42:38;;;;;;;4.00;1.40;;;;;;;11.02;100.00;101432.72;4993693;28;20670;-72
2021/09/30 06:45:29;;;;;;;4.20;1.40;;;;;;;10.99;100.00;101448.72;4982042;28;20279;-71
2021/09/30 06:48:19;;;;;;;3.37;1.47;;;;;;;11.07;100.00;101446.38;5011331;28;20193;-73
2021/09/30 06:50:50;;;;;;;4.67;1.30;;;;;;;11.09;100.00;101448.84;5012546;28;20239;-73
2021/09/30 06:53:30;;;;;;;3.43;1.37;;;;;;;11.11;100.00;101454.84;4997902;28;20180;-73
2021/09/30 06:56:10;;;;;;;2.73;1.20;;;;;;;11.08;100.00;101458.91;4997438;28;20339;-74
2021/09/30 06:59:03;;;;;;;3.27;1.20;;;;;;;11.08;100.00;101458.06;5013277;28;20279;-76
2021/09/30 07:01:50;;;;;;;2.23;1.23;;;;;;;11.29;100.00;101458.03;5012310;28;20253;-75
2021/09/30 07:04:36;;;;;;;4.40;1.27;;;;;;;11.39;100.00;101456.22;4982798;28;20287;-72
2021/09/30 07:07:21;;;;;;;3.87;1.20;;;;;;;11.27;100.00;101468.34;4990745;28;20268;-71
2021/09/30 07:09:47;;;;;;;4.73;1.40;;;;;;;11.37;100.00;101469.28;4995247;28;20233;-73
2021/09/30 07:12:15;;;;;;;4.60;1.40;;;;;;;11.30;100.00;101474.09;4975665;28;20218;-74
2021/09/30 07:14:43;;;;;;;5.00;1.30;;;;;;;11.39;100.00;101479.88;4977281;28;20178;-74
2021/09/30 07:17:14;;;;;;;3.83;0.97;;;;;;;11.57;100.00;101469.47;4976252;28;20213;-72
2021/09/30 07:19:39;;;;;;;3.37;1.57;;;;;;;11.60;100.00;101475.22;4992691;28;20667;-74
2021/09/30 07:22:08;;;;;;;3.23;1.40;;;;;;;11.57;100.00;101474.91;4971783;28;20226;-75
2021/09/30 07:24:36;;;;;;;4.67;1.50;;;;;;;11.53;100.00;101484.66;4975452;28;20186;-77
2021/09/30 07:27:02;;;;;;;4.03;1.40;;;;;;;11.58;100.00;101476.56;4992074;28;20222;-71
2021/09/30 07:29:28;;;;;;;3.13;1.40;;;;;;;11.58;100.00;101490.16;4993547;28;20197;-74
2021/09/30 07:31:56;;;;;;;4.13;1.70;;;;;;;11.74;100.00;101481.88;4983935;28;20272;-73
2021/09/30 07:34:27;;;;;;;3.67;1.20;;;;;;;11.76;100.00;101476.19;4997064;28;20683;-74
2021/09/30 07:36:52;;;;;;;5.30;1.43;;;;;;;11.93;100.00;101485.84;4998250;28;20301;-72
2021/09/30 07:39:23;;;;;;;2.93;1.47;;;;;;;11.98;100.00;101481.25;4996333;28;20224;-75
2021/09/30 07:41:48;;;;;;;3.03;1.37;;;;;;;12.19;100.00;101487.66;4962523;28;20726;-73
2021/09/30 07:44:16;;;;;;;2.17;0.97;;;;;;;12.23;100.00;101492.31;4977473;28;20655;-72
2021/09/30 07:46:45;;;;;;;3.67;1.23;;;;;;;12.03;100.00;101505.81;4973134;28;20218;-75
2021/09/30 07:49:15;;;;;;;4.87;1.30;;;;;;;12.08;100.00;101505.00;4988356;28;20743;-72
2021/09/30 07:51:43;;;;;;;2.67;1.10;;;;;;;12.10;100.00;101502.84;4976465;28;20217;-72
2021/09/30 07:54:14;;;;;;;3.03;1.30;;;;;;;12.30;100.00;101501.88;4993553;28;20689;-72
2021/09/30 07:56:39;;;;;;;2.80;1.17;;;;;;;12.37;100.00;101504.41;5005761;28;20263;-72
2021/09/30 07:59:05;;;;;;;3.80;1.30;;;;;;;12.47;100.00;101499.00;4988798;23;20638;-75
2021/09/30 08:01:33;;;;;;;4.40;1.07;;;;;;;12.56;100.00;101505.59;4978286;28;20235;-72
2021/09/30 08:04:00;;;;;;;3.03;1.00;;;;;;;12.60;100.00;101498.53;4995124;28;20197;-74
2021/09/30 08:06:27;;;;;;;5.03;1.63;;;;;;;12.91;100.00;101504.72;4995822;28;20730;-73
2021/09/30 08:08:56;;;;;;;4.33;1.10;;;;;;;12.73;100.00;101512.50;4986958;28;20211;-74
2021/09/30 08:11:27;;;;;;;4.40;1.00;;;;;;;13.01;100.00;101506.66;4997717;28;20353;-73
2021/09/30 08:13:55;;;;;;;2.73;1.00;;;;;;;13.07;100.00;101509.94;4980031;28;20184;-73
2021/09/30 08:16:25;;;;;;;4.23;1.10;;;;;;;13.03;100.00;101510.75;4993500;28;20686;-74
2021/09/30 08:18:56;;;;;;;3.63;1.20;;;;;;;13.10;100.00;101516.78;4997506;28;20223;-72
2021/09/30 08:21:24;;;;;;;3.37;1.50;;;;;;;12.97;100.00;101519.19;5013457;28;20260;-72
2021/09/30 08:23:50;;;;;;;3.93;1.20;;;;;;;13.27;100.00;101522.84;4994718;28;20189;-72
2021/09/30 08:26:18;;;;;;;3.17;1.00;;;;;;;13.31;100.00;101527.47;5009990;28;20221;-75
2021/09/30 08:28:49;;;;;;;2.83;1.00;;;;;;;13.62;100.00;101535.47;4981910;28;20223;-73
2021/09/30 08:31:15;;;;;;;2.20;1.17;;;;;;;13.69;100.00;101535.22;4998117;28;20216;-74
2021/09/30 08:33:42;;;;;;;3.77;1.20;;;;;;;13.45;100.00;101531.34;4993449;28;20181;-75
2021/09/30 08:36:12;;;;;;;3.00;1.13;;;;;;;13.59;100.00;101530.56;4977736;28;20212;-73
2021/09/30 08:38:41;;;;;;;4.43;1.30;;;;;;;13.63;100.00;101533.56;4994537;28;20209;-73
2021/09/30 08:41:10;;;;;;;4.00;1.20;;;;;;;13.66;100.00;101535.75;4994050;28;20260;-72
2021/09/30 08:43:35;;;;;;;2.73;0.93;;;;;;;13.74;100.00;101549.69;5023787;28;20669;-73
2021/09/30 08:46:05;;;;;;;3.23;1.30;;;;;;;13.98;100.00;101548.91;4981168;28;20708;-75
2021/09/30 08:48:35;;;;;;;3.57;1.67;;;;;;;13.90;100.00;101548.63;5010701;28;20212;-72
2021/09/30 08:51:03;;;;;;;7.30;1.10;;;;;;;13.86;100.00;101558.44;4993733;28;20228;-73
2021/09/30 08:53:30;;;;;;;4.80;1.23;;;;;;;14.02;100.00;101554.66;5014201;28;20212;-71
2021/09/30 08:55:59;;;;;;;4.57;1.10;;;;;;;14.10;100.00;101551.38;4980116;28;20668;-73
2021/09/30 08:58:29;;;;;;;4.87;1.43;;;;;;;14.07;100.00;101562.88;4993588;28;20204;-71
2021/09/30 09:01:00;;;;;;;4.00;1.30;;;;;;;14.21;100.00;101563.97;4977431;28;20291;-72
2021/09/30 09:03:45;;;;;;;5.03;1.57;;;;;;;14.35;100.00;101560.41;4998054;28;20581;-74
2021/09/30 09:06:34;;;;;;;5.23;1.37;;;;;;;14.33;100.00;101557.94;4981548;28;20315;-72
2021/09/30 09:09:29;;;;;;;4.80;1.27;;;;;;;14.19;100.00;101571.63;4996594;28;20247;-72
2021/09/30 09:11:55;;;;;;;5.37;1.47;;;;;;;14.07;100.00;101571.06;4992948;28;20346;-74
2021/09/30 09:14:36;;;;;;;4.73;1.50;;;;;;;14.45;100.00;101569.41;4978800;28;20321;-73
2021/09/30 09:17:05;;;;;;;5.17;1.37;;;;;;;14.49;100.00;101567.78;4973484;28;20225;-74
2021/09/30 09:19:41;;;;;;;4.80;1.57;;;;;;;14.60;100.00;101563.94;4991786;28;20209;-72
2021/09/30 09:22:11;;;;;;;4.03;1.30;;;;;;;14.42;100.00;101561.75;4974830;28;20240;-72
2021/09/30 09:24:53;;;;;;;4.10;1.50;;;;;;;14.63;100.00;101566.09;5003367;28;20246;-76
2021/09/30 09:27:23;;;;;;;5.13;1.37;;;;;;;14.93;100.00;101557.84;4982188;28;20318;-73
2021/09/30 09:29:49;;;;;;;6.47;1.40;;;;;;;14.73;100.00;101553.22;4977988;28;20296;-71
2021/09/30 09:32:19;;;;;;;6.07;1.50;;;;;;;14.81;100.00;101544.44;5010852;28;20304;-72
2021/09/30 09:34:45;;;;;;;4.37;1.40;;;;;;;14.78;100.00;101549.63;4997786;28;20235;-72
2021/09/30 09:37:39;;;;;;;5.22;1.58;;;;;;;14.98;100.00;101550.44;5030021;28;20223;-75
2021/09/30 09:40:15;;;;;;;6.73;1.27;;;;;;;14.85;100.00;101555.66;4980182;28;20655;-74
2021/09/30 09:42:41;;;;;;;5.93;1.67;;;;;;;14.83;100.00;101555.09;4993292;28;20247;-74
2021/09/30 09:45:13;;;;;;;5.50;1.30;;;;;;;15.08;100.00;101556.66;4994941;28;20192;-74
2021/09/30 09:47:40;;;;;;;7.70;1.70;;;;;;;15.06;100.00;101563.53;5017170;28;20176;-72
2021/09/30 09:50:17;;;;;;;4.17;1.20;;;;;;;15.08;100.00;101559.41;5001364;28;20220;-73
2021/09/30 09:52:54;;;;;;;5.82;1.70;;;;;;;15.08;100.00;101561.31;5013580;28;20227;-72
2021/09/30 09:55:21;;;;;;;6.33;1.40;;;;;;;15.19;100.00;101552.81;5029684;28;20646;-71
2021/09/30 09:58:03;;;;;;;6.68;1.33;;;;;;;15.49;100.00;101555.41;5034125;28;20179;-73
2021/09/30 10:00:55;;;;;;;6.27;1.30;;;;;;;15.43;100.00;101559.28;4998928;28;20244;-74
2021/09/30 10:03:26;;;;;;;7.03;1.10;;;;;;;15.60;100.00;101565.19;5014397;28;20177;-74
2021/09/30 10:05:53;;;;;;;4.55;1.48;;;;;;;15.42;100.00;101563.94;4999236;28;20232;-72
2021/09/30 10:08:18;;;;;;;6.55;1.48;;;;;;;15.31;100.00;101571.66;5032888;28;20188;-73
2021/09/30 10:10:50;;;;;;;3.55;1.08;;;;;;;14.96;100.00;101573.66;4982640;28;20228;-73
2021/09/30 10:13:16;;;;;;;3.25;1.00;;;;;;;15.23;100.00;101574.97;4965444;28;20177;-75
2021/09/30 10:15:43;;;;;;;6.70;1.30;;;;;;;15.43;100.00;101570.22;5013714;28;20239;-76
2021/09/30 10:18:10;;;;;;;4.00;1.45;;;;;;;15.57;100.00;101571.25;5032832;28;20191;-75
2021/09/30 10:20:38;;;;;;;4.83;1.37;;;;;;;15.54;100.00;101571.81;4984381;28;20240;-73
2021/09/30 10:23:07;;;;;;;4.90;1.53;;;;;;;16.07;100.00;101574.47;4996888;28;20188;-75
2021/09/30 10:25:42;;;;;;;5.47;1.17;;;;;;;16.04;100.00;101570.38;5011085;28;20301;-73
2021/09/30 10:28:11;;;;;;;5.57;1.52;;;;;;;15.95;100.00;101574.84;5001147;28;20189;-72
2021/09/30 10:30:43;;;;;;;7.67;2.37;;;;;;;16.17;100.00;101573.28;5002249;28;20229;-74
2021/09/30 10:33:12;;;;;;;6.32;1.50;;;;;;;15.92;100.00;101577.34;4981284;28;20180;-75
2021/09/30 10:35:44;;;;;;;5.28;1.27;;;;;;;15.87;100.00;101577.34;5009318;28;20727;-73
2021/09/30 10:38:29;;;;;;;4.73;1.30;;;;;;;15.80;100.00;101574.09;5017055;28;20179;-75
2021/09/30 10:41:00;;;;;;;3.92;1.13;;;;;;;15.69;100.00;101571.72;5016156;28;20701;-71
2021/09/30 10:43:30;;;;;;;6.57;1.30;;;;;;;15.84;100.00;101572.44;5012736;28;20232;-73
2021/09/30 10:45:59;;;;;;;4.57;1.15;;;;;;;16.03;99.92;101566.00;5026437;28;20572;-75
2021/09/30 10:48:24;;;;;;;4.18;1.25;;;;;;;16.04;98.20;101570.38;5016403;28;20184;-73
2021/09/30 10:50:55;;;;;;;7.72;1.30;;;;;;;15.89;95.77;101586.91;5019507;28;20548;-74
2021/09/30 10:53:48;;;;;;;5.25;1.10;;;;;;;15.90;93.75;101587.75;5012472;28;20185;-71
2021/09/30 10:56:37;;;;;;;5.25;1.15;;;;;;;15.78;97.34;101585.34;5027874;28;20285;-75
2021/09/30 10:59:13;;;;;;;7.47;1.13;;;;;;;15.60;95.79;101582.44;5032265;28;20212;-73
2021/09/30 11:01:47;;;;;;;2.40;0.85;;;;;;;15.08;98.39;101599.63;5012775;28;20282;-70
2021/09/30 11:04:20;;;;;;;4.18;0.77;;;;;;;15.50;96.76;101595.41;5012634;28;20188;-77
2021/09/30 11:07:12;;;;;;;5.57;1.33;;;;;;;15.43;96.76;101598.41;4998624;28;20227;-73
2021/09/30 11:09:37;;;;;;;4.03;1.10;;;;;;;15.36;98.38;101604.50;5012025;28;20694;-75
2021/09/30 11:12:11;;;;;;;3.67;0.90;;;;;;;15.14;95.56;101588.41;5011780;28;20236;-74
2021/09/30 11:14:57;;;;;;;2.38;0.85;;;;;;;14.92;96.03;101589.81;4980493;28;20212;-72
2021/09/30 11:17:38;;;;;;;4.57;1.40;;;;;;;15.01;97.45;101599.91;4981350;28;20295;-76
2021/09/30 11:20:30;;;;;;;2.90;0.83;;;;;;;15.16;93.54;101596.34;4982959;28;20690;-73
2021/09/30 11:22:56;;;;;;;7.50;1.33;;;;;;;15.25;91.33;101592.75;5015576;28;20220;-75
2021/09/30 11:25:21;;;;;;;5.83;1.50;;;;;;;15.60;87.28;101592.59;4994333;28;20192;-73
2021/09/30 11:27:49;;;;;;;4.43;1.33;;;;;;;15.80;87.67;101594.13;4995983;28;20207;-75
2021/09/30 11:30:20;;;;;;;4.47;1.45;;;;;;;16.00;88.62;101604.94;4982438;28;20216;-73
2021/09/30 11:32:45;;;;;;;5.13;1.50;;;;;;;16.15;87.77;101596.59;5016574;28;20189;-77
2021/09/30 11:35:11;;;;;;;2.75;1.00;;;;;;;15.94;87.76;101608.81;5013690;28;20195;-74
2021/09/30 11:37:43;;;;;;;4.35;1.08;;;;;;;16.04;88.01;101600.50;5012156;28;20631;-71
2021/09/30 11:40:15;;;;;;;5.75;1.23;;;;;;;16.35;85.98;101596.47;4981510;28;20926;-73
2021/09/30 11:42:54;;;;;;;4.57;1.20;;;;;;;16.20;82.49;101599.34;4999661;28;20184;-72
2021/09/30 11:45:22;;;;;;;3.85;1.13;;;;;;;15.84;83.90;101614.38;4999671;28;20362;-72
2021/09/30 11:47:48;;;;;;;3.75;0.88;;;;;;;15.92;84.81;101611.03;4980072;28;20173;-74
2021/09/30 11:50:19;;;;;;;5.55;1.63;;;;;;;15.81;83.19;101606.72;4979979;28;20196;-73
2021/09/30 11:53:20;;;;;;;4.38;1.10;;;;;;;15.91;84.73;101608.56;5016529;28;20177;-73
2021/09/30 11:55:48;;;;;;;3.13;1.00;;;;;;;15.68;83.62;101608.44;5011514;28;20209;-71
2021/09/30 11:58:16;;;;;;;4.03;1.10;;;;;;;16.10;81.48;101618.59;4995735;28;20177;-72
2021/09/30 12:00:48;;;;;;;5.30;1.27;;;;;;;15.93;82.75;101609.94;4997743;28;20259;-73
2021/09/30 12:03:16;;;;;;;4.43;1.38;;;;;;;15.99;83.80;101608.78;5000483;28;20553;-74
2021/09/30 12:05:44;;;;;;;3.72;0.90;;;;;;;16.18;77.40;101612.53;4996031;28;20243;-73
2021/09/30 12:08:14;;;;;;;3.78;1.40;;;;;;;16.50;79.16;101610.06;4979350;28;20619;-75
2021/09/30 12:10:40;;;;;;;4.80;1.10;;;;;;;16.63;75.32;101608.28;4995758;28;20231;-75
2021/09/30 12:13:21;;;;;;;2.85;1.23;;;;;;;17.07;73.38;101601.53;4998068;28;20184;-74
2021/09/30 12:15:47;;;;;;;3.90;1.10;;;;;;;17.17;73.74;101600.63;4995488;28;20295;-75
2021/09/30 12:18:25;;;;;;;4.05;1.17;;;;;;;17.43;74.96;101595.31;4973313;28;20176;-71
2021/09/30 12:20:56;;;;;;;6.10;1.67;;;;;;;17.29;72.04;101603.75;5011744;28;20229;-70
2021/09/30 12:23:25;;;;;;;4.43;1.13;;;;;;;17.25;74.70;101602.72;5014529;28;20184;-74
2021/09/30 12:25:50;;;;;;;4.43;1.10;;;;;;;16.92;74.08;101609.09;5013328;28;20227;-75
2021/09/30 12:28:16;;;;;;;3.95;1.05;;;;;;;16.84;71.73;101614.41;4994307;28;20181;-76
2021/09/30 12:30:46;;;;;;;3.33;1.25;;;;;;;16.44;73.25;101611.22;4994597;28;20232;-73
2021/09/30 12:33:12;;;;;;;4.60;1.13;;;;;;;16.11;73.08;101619.41;5029495;28;20199;-72
2021/09/30 12:35:41;;;;;;;3.55;1.10;;;;;;;15.80;77.88;101613.31;5029972;28;20220;-75
2021/09/30 12:38:25;;;;;;;4.97;1.15;;;;;;;15.88;76.76;101609.97;4996771;28;20177;-76
2021/09/30 12:40:54;;;;;;;3.58;1.30;;;;;;;15.94;75.01;101621.72;4994216;28;20237;-71
2021/09/30 12:43:29;;;;;;;2.95;0.90;;;;;;;16.15;70.64;101614.97;4996441;28;20263;-74
2021/09/30 12:45:57;;;;;;;4.85;1.40;;;;;;;16.39;71.18;101620.31;4989248;28;20232;-73
2021/09/30 12:48:25;;;;;;;2.80;1.00;;;;;;;16.77;70.68;101606.50;5011864;28;20779;-77
2021/09/30 12:50:57;;;;;;;3.78;1.02;;;;;;;16.86;65.00;101615.75;4993985;28;20316;-72
2021/09/30 12:53:25;;;;;;;3.55;1.10;;;;;;;16.51;68.32;101611.72;5011708;28;20195;-74
2021/09/30 12:55:52;;;;;;;4.90;1.52;;;;;;;16.30;72.79;101604.72;5013011;28;20224;-76
2021/09/30 12:58:27;;;;;;;5.50;1.20;;;;;;;15.97;76.40;101615.66;4997378;28;20184;-71
2021/09/30 13:00:56;;;;;;;5.43;1.38;;;;;;;16.03;78.54;101609.06;4994044;28;20821;-73
2021/09/30 13:03:25;;;;;;;4.30;1.33;;;;;;;15.92;74.21;101618.44;4993965;28;20188;-74
2021/09/30 13:06:00;;;;;;;4.60;0.93;;;;;;;15.87;73.98;101611.06;5029455;28;20322;-75
2021/09/30 13:08:42;;;;;;;3.22;1.10;;;;;;;15.83;75.14;101618.22;5014017;28;20185;-75
2021/09/30 13:11:23;;;;;;;3.95;1.00;;;;;;;16.03;74.55;101615.34;4994114;28;20224;-76
2021/09/30 13:14:22;;;;;;;2.75;1.00;;;;;;;16.25;73.28;101618.50;5025876;28;20190;-75
2021/09/30 13:17:13;;;;;;;5.65;1.30;;;;;;;15.99;75.90;101614.28;5004132;28;20608;-73
2021/09/30 13:19:57;;;;;;;4.85;1.23;;;;;;;16.32;73.91;101608.03;5020458;28;20220;-74
2021/09/30 13:22:44;;;;;;;4.53;1.17;;;;;;;16.17;76.66;101616.31;5012913;28;20283;-76
2021/09/30 13:25:15;;;;;;;6.18;1.38;;;;;;;16.08;75.17;101609.00;4976765;28;20192;-75
2021/09/30 13:27:45;;;;;;;5.60;1.60;;;;;;;16.07;76.20;101610.13;4977779;28;20189;-76
2021/09/30 13:30:15;;;;;;;5.18;1.20;;;;;;;15.94;74.45;101610.75;5033366;28;20215;-75
2021/09/30 13:32:43;;;;;;;3.63;1.00;;;;;;;15.84;76.53;101608.91;5011156;28;20185;-76
2021/09/30 13:35:09;;;;;;;5.05;1.20;;;;;;;16.07;76.52;101610.91;4981424;28;20234;-75
2021/09/30 13:37:37;;;;;;;7.73;1.10;;;;;;;15.82;80.32;101605.63;5002777;28;20192;-75
2021/09/30 13:40:06;;;;;;;3.23;1.30;;;;;;;15.70;80.65;101600.78;5034156;28;20259;-74
2021/09/30 13:42:32;;;;;;;5.43;1.13;;;;;;;15.84;79.66;101611.63;5001400;28;20227;-77
2021/09/30 13:45:03;;;;;;;3.43;1.20;;;;;;;15.93;78.41;101600.88;5020606;28;20217;-74
2021/09/30 13:47:35;;;;;;;4.80;1.23;;;;;;;16.09;77.51;101602.41;4989337;28;20221;-77
2021/09/30 13:50:01;;;;;;;5.13;1.03;;;;;;;16.18;77.32;101601.56;5003960;28;20248;-76
2021/09/30 13:52:29;;;;;;;3.35;1.30;;;;;;;16.52;79.06;101596.88;5009211;28;20246;-76
2021/09/30 13:54:54;;;;;;;4.10;1.08;;;;;;;16.50;75.45;101597.19;4996012;28;20200;-74
2021/09/30 13:57:20;;;;;;;2.83;1.00;;;;;;;16.50;78.15;101588.13;4980826;28;20216;-78
2021/09/30 13:59:48;;;;;;;4.03;1.10;;;;;;;16.50;76.97;101588.94;5015416;28;20224;-76
2021/09/30 14:02:16;;;;;;;5.47;1.58;;;;;;;16.19;80.44;101586.75;5012781;28;20304;-77
2021/09/30 14:04:45;;;;;;;3.78;1.02;;;;;;;16.03;79.44;101598.09;5014191;28;20181;-74
2021/09/30 14:07:11;;;;;;;3.90;1.17;;;;;;;15.77;82.97;101582.06;4995236;28;20291;-76
2021/09/30 14:09:36;;;;;;;5.30;1.70;;;;;;;16.16;81.99;101586.47;4997611;28;20205;-77
2021/09/30 14:12:03;;;;;;;4.25;1.42;;;;;;;16.43;80.25;101582.16;4972525;28;20695;-78
2021/09/30 14:14:31;;;;;;;4.90;1.15;;;;;;;16.53;79.72;101582.88;4985096;28;20570;-77
2021/09/30 14:16:56;;;;;;;3.38;0.98;;;;;;;16.43;80.43;101582.16;4980636;28;20217;-76
2021/09/30 14:19:26;;;;;;;5.18;1.13;;;;;;;16.56;76.13;101583.13;4995848;28;20585;-75
2021/09/30 14:21:52;;;;;;;3.50;1.00;;;;;;;16.53;76.94;101576.56;4986125;28;20229;-78
2021/09/30 14:24:18;;;;;;;4.15;1.10;;;;;;;16.66;73.23;101569.28;4994749;28;20268;-78